sensor_id;sensor_type;location;lat;lon;timestamp;P1;durP1;ratioP1;P2;durP2;ratioP2
16407;SDS011;8313;49.894;8.084;2023-06-22T00:00:49;6.97;;;6.37;;
16407;SDS011;8313;49.894;8.084;2023-06-22T00:03:15;8.47;;;6.47;;
16407;SDS011;8313;49.894;8.084;2023-06-22T00:05:48;8.70;;;6.80;;
16407;SDS011;8313;49.894;8.084;2023-06-22T00:08:14;6.80;;;6.10;;
16407;SDS011;8313;49.894;8.084;2023-06-22T00:10:41;6.70;;;6.10;;
16407;SDS011;8313;49.894;8.084;2023-06-22T00:13:08;6.23;;;5.63;;
16407;SDS011;8313;49.894;8.084;2023-06-22T00:15:34;6.30;;;5.80;;
16407;SDS011;8313;49.894;8.084;2023-06-22T00:18:01;6.73;;;5.50;;
16407;SDS011;8313;49.894;8.084;2023-06-22T00:20:27;6.60;;;6.00;;
16407;SDS011;8313;49.894;8.084;2023-06-22T00:22:57;6.07;;;5.47;;
16407;SDS011;8313;49.894;8.084;2023-06-22T00:25:24;6.47;;;5.87;;
16407;SDS011;8313;49.894;8.084;2023-06-22T00:27:50;6.13;;;5.63;;
16407;SDS011;8313;49.894;8.084;2023-06-22T00:30:16;6.77;;;6.07;;
16407;SDS011;8313;49.894;8.084;2023-06-22T00:32:42;6.37;;;5.77;;
16407;SDS011;8313;49.894;8.084;2023-06-22T00:35:08;6.60;;;6.00;;
16407;SDS011;8313;49.894;8.084;2023-06-22T00:37:35;6.80;;;5.40;;
16407;SDS011;8313;49.894;8.084;2023-06-22T00:40:02;7.70;;;6.33;;
16407;SDS011;8313;49.894;8.084;2023-06-22T00:42:29;6.73;;;6.00;;
16407;SDS011;8313;49.894;8.084;2023-06-22T00:44:55;7.03;;;5.70;;
16407;SDS011;8313;49.894;8.084;2023-06-22T00:47:22;7.90;;;7.20;;
16407;SDS011;8313;49.894;8.084;2023-06-22T00:49:49;8.23;;;6.53;;
16407;SDS011;8313;49.894;8.084;2023-06-22T00:52:19;7.17;;;6.53;;
16407;SDS011;8313;49.894;8.084;2023-06-22T00:54:48;7.10;;;6.40;;
16407;SDS011;8313;49.894;8.084;2023-06-22T00:57:15;7.97;;;7.17;;
16407;SDS011;8313;49.894;8.084;2023-06-22T00:59:43;7.37;;;6.40;;
16407;SDS011;8313;49.894;8.084;2023-06-22T01:02:09;8.33;;;7.53;;
16407;SDS011;8313;49.894;8.084;2023-06-22T01:04:36;7.73;;;6.20;;
16407;SDS011;8313;49.894;8.084;2023-06-22T01:12:34;7.60;;;6.80;;
16407;SDS011;8313;49.894;8.084;2023-06-22T01:18:11;6.63;;;6.03;;
16407;SDS011;8313;49.894;8.084;2023-06-22T01:20:39;7.53;;;6.83;;
16407;SDS011;8313;49.894;8.084;2023-06-22T01:31:00;6.40;;;5.80;;
16407;SDS011;8313;49.894;8.084;2023-06-22T01:33:31;6.60;;;6.00;;
16407;SDS011;8313;49.894;8.084;2023-06-22T01:35:59;6.03;;;5.43;;
16407;SDS011;8313;49.894;8.084;2023-06-22T01:38:26;8.67;;;7.83;;
16407;SDS011;8313;49.894;8.084;2023-06-22T01:40:54;6.73;;;6.13;;
16407;SDS011;8313;49.894;8.084;2023-06-22T01:43:21;6.90;;;6.13;;
16407;SDS011;8313;49.894;8.084;2023-06-22T01:45:48;7.80;;;7.00;;
16407;SDS011;8313;49.894;8.084;2023-06-22T01:48:15;8.00;;;7.07;;
16407;SDS011;8313;49.894;8.084;2023-06-22T01:50:40;8.47;;;7.57;;
16407;SDS011;8313;49.894;8.084;2023-06-22T01:53:06;8.57;;;7.50;;
16407;SDS011;8313;49.894;8.084;2023-06-22T01:55:32;7.20;;;6.50;;
16407;SDS011;8313;49.894;8.084;2023-06-22T01:57:58;8.40;;;7.03;;
16407;SDS011;8313;49.894;8.084;2023-06-22T02:00:24;7.20;;;6.50;;
16407;SDS011;8313;49.894;8.084;2023-06-22T02:02:53;6.80;;;5.90;;
16407;SDS011;8313;49.894;8.084;2023-06-22T02:05:23;7.80;;;7.00;;
16407;SDS011;8313;49.894;8.084;2023-06-22T02:07:59;8.47;;;7.23;;
16407;SDS011;8313;49.894;8.084;2023-06-22T02:10:38;8.33;;;6.27;;
16407;SDS011;8313;49.894;8.084;2023-06-22T02:13:06;9.57;;;7.33;;
16407;SDS011;8313;49.894;8.084;2023-06-22T02:15:34;8.03;;;7.20;;
16407;SDS011;8313;49.894;8.084;2023-06-22T02:18:00;8.70;;;7.23;;
16407;SDS011;8313;49.894;8.084;2023-06-22T02:20:26;8.53;;;7.10;;
16407;SDS011;8313;49.894;8.084;2023-06-22T02:22:51;7.13;;;6.43;;
16407;SDS011;8313;49.894;8.084;2023-06-22T02:25:17;8.77;;;7.97;;
16407;SDS011;8313;49.894;8.084;2023-06-22T02:27:45;7.10;;;6.40;;
16407;SDS011;8313;49.894;8.084;2023-06-22T02:30:11;8.53;;;7.60;;
16407;SDS011;8313;49.894;8.084;2023-06-22T02:32:38;8.20;;;7.47;;
16407;SDS011;8313;49.894;8.084;2023-06-22T02:35:06;8.53;;;7.67;;
16407;SDS011;8313;49.894;8.084;2023-06-22T02:37:33;7.17;;;6.50;;
16407;SDS011;8313;49.894;8.084;2023-06-22T02:40:01;7.93;;;7.00;;
16407;SDS011;8313;49.894;8.084;2023-06-22T02:42:29;7.50;;;6.80;;
16407;SDS011;8313;49.894;8.084;2023-06-22T02:44:54;7.70;;;6.80;;
16407;SDS011;8313;49.894;8.084;2023-06-22T02:47:20;7.90;;;7.20;;
16407;SDS011;8313;49.894;8.084;2023-06-22T02:49:46;7.60;;;6.80;;
16407;SDS011;8313;49.894;8.084;2023-06-22T02:52:12;9.07;;;8.17;;
16407;SDS011;8313;49.894;8.084;2023-06-22T02:54:38;8.63;;;7.73;;
16407;SDS011;8313;49.894;8.084;2023-06-22T02:57:03;7.57;;;6.83;;
16407;SDS011;8313;49.894;8.084;2023-06-22T02:59:30;7.37;;;6.67;;
16407;SDS011;8313;49.894;8.084;2023-06-22T03:02:01;7.90;;;7.20;;
16407;SDS011;8313;49.894;8.084;2023-06-22T03:04:30;7.80;;;7.07;;
16407;SDS011;8313;49.894;8.084;2023-06-22T03:06:56;8.03;;;7.23;;
16407;SDS011;8313;49.894;8.084;2023-06-22T03:09:27;8.27;;;7.50;;
16407;SDS011;8313;49.894;8.084;2023-06-22T03:11:55;7.50;;;6.70;;
16407;SDS011;8313;49.894;8.084;2023-06-22T03:14:22;7.37;;;6.67;;
16407;SDS011;8313;49.894;8.084;2023-06-22T03:16:49;8.00;;;7.20;;
16407;SDS011;8313;49.894;8.084;2023-06-22T03:19:17;8.10;;;7.33;;
16407;SDS011;8313;49.894;8.084;2023-06-22T03:21:44;8.83;;;7.50;;
16407;SDS011;8313;49.894;8.084;2023-06-22T03:24:10;7.77;;;7.07;;
16407;SDS011;8313;49.894;8.084;2023-06-22T03:26:37;7.73;;;7.10;;
16407;SDS011;8313;49.894;8.084;2023-06-22T03:29:02;7.70;;;7.00;;
16407;SDS011;8313;49.894;8.084;2023-06-22T03:31:29;8.90;;;7.57;;
16407;SDS011;8313;49.894;8.084;2023-06-22T03:33:55;8.50;;;7.70;;
16407;SDS011;8313;49.894;8.084;2023-06-22T03:36:22;10.43;;;6.70;;
16407;SDS011;8313;49.894;8.084;2023-06-22T03:38:49;8.40;;;7.10;;
16407;SDS011;8313;49.894;8.084;2023-06-22T03:41:15;7.93;;;7.10;;
16407;SDS011;8313;49.894;8.084;2023-06-22T03:43:42;8.73;;;7.23;;
16407;SDS011;8313;49.894;8.084;2023-06-22T03:46:07;8.17;;;7.10;;
16407;SDS011;8313;49.894;8.084;2023-06-22T03:48:33;7.73;;;7.03;;
16407;SDS011;8313;49.894;8.084;2023-06-22T03:50:59;9.73;;;8.73;;
16407;SDS011;8313;49.894;8.084;2023-06-22T03:53:26;8.20;;;7.30;;
16407;SDS011;8313;49.894;8.084;2023-06-22T03:55:52;9.20;;;8.10;;
16407;SDS011;8313;49.894;8.084;2023-06-22T03:58:19;7.50;;;6.87;;
16407;SDS011;8313;49.894;8.084;2023-06-22T04:00:49;10.30;;;7.30;;
16407;SDS011;8313;49.894;8.084;2023-06-22T04:03:16;8.50;;;7.60;;
16407;SDS011;8313;49.894;8.084;2023-06-22T04:05:46;8.77;;;7.87;;
16407;SDS011;8313;49.894;8.084;2023-06-22T04:08:12;9.27;;;8.27;;
16407;SDS011;8313;49.894;8.084;2023-06-22T04:10:39;9.23;;;6.93;;
16407;SDS011;8313;49.894;8.084;2023-06-22T04:13:04;9.50;;;7.30;;
16407;SDS011;8313;49.894;8.084;2023-06-22T04:15:30;8.00;;;7.20;;
16407;SDS011;8313;49.894;8.084;2023-06-22T04:17:56;7.00;;;6.30;;
16407;SDS011;8313;49.894;8.084;2023-06-22T04:20:22;11.03;;;7.43;;
16407;SDS011;8313;49.894;8.084;2023-06-22T04:22:51;8.70;;;7.80;;
16407;SDS011;8313;49.894;8.084;2023-06-22T04:25:18;8.77;;;7.87;;
16407;SDS011;8313;49.894;8.084;2023-06-22T04:27:45;7.93;;;7.20;;
16407;SDS011;8313;49.894;8.084;2023-06-22T04:30:11;8.90;;;8.10;;
16407;SDS011;8313;49.894;8.084;2023-06-22T04:32:40;8.73;;;7.80;;
16407;SDS011;8313;49.894;8.084;2023-06-22T04:35:06;8.77;;;7.97;;
16407;SDS011;8313;49.894;8.084;2023-06-22T04:37:32;8.77;;;7.97;;
16407;SDS011;8313;49.894;8.084;2023-06-22T04:39:58;8.70;;;7.80;;
16407;SDS011;8313;49.894;8.084;2023-06-22T04:42:25;8.10;;;7.40;;
16407;SDS011;8313;49.894;8.084;2023-06-22T04:44:51;7.47;;;6.77;;
16407;SDS011;8313;49.894;8.084;2023-06-22T04:47:17;8.50;;;7.70;;
16407;SDS011;8313;49.894;8.084;2023-06-22T04:49:43;8.60;;;7.43;;
16407;SDS011;8313;49.894;8.084;2023-06-22T04:52:10;7.83;;;7.10;;
16407;SDS011;8313;49.894;8.084;2023-06-22T04:54:37;8.53;;;7.40;;
16407;SDS011;8313;49.894;8.084;2023-06-22T04:57:06;7.90;;;7.10;;
16407;SDS011;8313;49.894;8.084;2023-06-22T04:59:36;9.67;;;8.67;;
16407;SDS011;8313;49.894;8.084;2023-06-22T05:02:04;9.63;;;8.63;;
16407;SDS011;8313;49.894;8.084;2023-06-22T05:04:31;8.67;;;7.57;;
16407;SDS011;8313;49.894;8.084;2023-06-22T05:06:57;8.93;;;7.60;;
16407;SDS011;8313;49.894;8.084;2023-06-22T05:09:23;8.27;;;7.47;;
16407;SDS011;8313;49.894;8.084;2023-06-22T05:11:52;9.47;;;8.57;;
16407;SDS011;8313;49.894;8.084;2023-06-22T05:14:18;8.60;;;7.70;;
16407;SDS011;8313;49.894;8.084;2023-06-22T05:16:44;9.90;;;8.23;;
16407;SDS011;8313;49.894;8.084;2023-06-22T05:19:10;13.43;;;8.03;;
16407;SDS011;8313;49.894;8.084;2023-06-22T05:21:37;8.83;;;7.97;;
16407;SDS011;8313;49.894;8.084;2023-06-22T05:24:03;9.50;;;8.50;;
16407;SDS011;8313;49.894;8.084;2023-06-22T05:26:30;9.80;;;8.90;;
16407;SDS011;8313;49.894;8.084;2023-06-22T05:28:56;10.07;;;8.67;;
16407;SDS011;8313;49.894;8.084;2023-06-22T05:31:22;10.00;;;8.93;;
16407;SDS011;8313;49.894;8.084;2023-06-22T05:33:49;9.00;;;8.00;;
16407;SDS011;8313;49.894;8.084;2023-06-22T05:36:16;10.37;;;9.00;;
16407;SDS011;8313;49.894;8.084;2023-06-22T05:38:45;9.87;;;8.87;;
16407;SDS011;8313;49.894;8.084;2023-06-22T05:41:11;10.27;;;9.13;;
16407;SDS011;8313;49.894;8.084;2023-06-22T05:43:36;8.47;;;7.50;;
16407;SDS011;8313;49.894;8.084;2023-06-22T05:46:03;8.80;;;7.90;;
16407;SDS011;8313;49.894;8.084;2023-06-22T05:48:29;9.37;;;8.33;;
16407;SDS011;8313;49.894;8.084;2023-06-22T05:50:55;9.03;;;8.03;;
16407;SDS011;8313;49.894;8.084;2023-06-22T05:53:20;14.10;;;9.90;;
16407;SDS011;8313;49.894;8.084;2023-06-22T05:55:46;10.10;;;8.73;;
16407;SDS011;8313;49.894;8.084;2023-06-22T05:58:12;10.70;;;9.00;;
16407;SDS011;8313;49.894;8.084;2023-06-22T06:00:41;10.63;;;9.53;;
16407;SDS011;8313;49.894;8.084;2023-06-22T06:03:08;9.97;;;8.93;;
16407;SDS011;8313;49.894;8.084;2023-06-22T06:05:34;10.63;;;9.53;;
16407;SDS011;8313;49.894;8.084;2023-06-22T06:08:00;14.93;;;9.20;;
16407;SDS011;8313;49.894;8.084;2023-06-22T06:10:28;11.03;;;9.93;;
16407;SDS011;8313;49.894;8.084;2023-06-22T06:12:55;10.43;;;9.27;;
16407;SDS011;8313;49.894;8.084;2023-06-22T06:15:21;10.37;;;8.53;;
16407;SDS011;8313;49.894;8.084;2023-06-22T06:20:13;9.87;;;8.87;;
16407;SDS011;8313;49.894;8.084;2023-06-22T06:22:39;15.13;;;9.07;;
16407;SDS011;8313;49.894;8.084;2023-06-22T06:25:05;10.53;;;9.43;;
16407;SDS011;8313;49.894;8.084;2023-06-22T06:27:31;12.23;;;8.93;;
16407;SDS011;8313;49.894;8.084;2023-06-22T06:29:56;10.13;;;9.10;;
16407;SDS011;8313;49.894;8.084;2023-06-22T06:32:22;10.27;;;9.07;;
16407;SDS011;8313;49.894;8.084;2023-06-22T06:34:48;10.50;;;9.33;;
16407;SDS011;8313;49.894;8.084;2023-06-22T06:37:13;9.13;;;8.33;;
16407;SDS011;8313;49.894;8.084;2023-06-22T06:39:39;11.20;;;10.00;;
16407;SDS011;8313;49.894;8.084;2023-06-22T06:42:04;10.30;;;8.40;;
16407;SDS011;8313;49.894;8.084;2023-06-22T06:44:30;10.10;;;9.10;;
16407;SDS011;8313;49.894;8.084;2023-06-22T06:46:56;10.57;;;9.27;;
16407;SDS011;8313;49.894;8.084;2023-06-22T06:49:22;9.80;;;8.80;;
16407;SDS011;8313;49.894;8.084;2023-06-22T06:51:47;9.30;;;8.17;;
16407;SDS011;8313;49.894;8.084;2023-06-22T06:54:13;13.90;;;9.70;;
16407;SDS011;8313;49.894;8.084;2023-06-22T06:56:39;9.10;;;8.20;;
16407;SDS011;8313;49.894;8.084;2023-06-22T06:59:04;9.30;;;8.50;;
16407;SDS011;8313;49.894;8.084;2023-06-22T07:01:30;11.30;;;10.20;;
16407;SDS011;8313;49.894;8.084;2023-06-22T07:03:59;10.40;;;9.40;;
16407;SDS011;8313;49.894;8.084;2023-06-22T07:06:25;10.93;;;9.83;;
16407;SDS011;8313;49.894;8.084;2023-06-22T07:08:54;9.93;;;9.03;;
16407;SDS011;8313;49.894;8.084;2023-06-22T07:11:20;9.60;;;8.70;;
16407;SDS011;8313;49.894;8.084;2023-06-22T07:13:46;12.30;;;9.10;;
16407;SDS011;8313;49.894;8.084;2023-06-22T07:16:11;10.37;;;9.37;;
16407;SDS011;8313;49.894;8.084;2023-06-22T07:18:39;10.50;;;9.40;;
16407;SDS011;8313;49.894;8.084;2023-06-22T07:21:04;8.90;;;8.03;;
16407;SDS011;8313;49.894;8.084;2023-06-22T07:23:32;12.43;;;9.33;;
16407;SDS011;8313;49.894;8.084;2023-06-22T07:25:57;9.53;;;8.63;;
16407;SDS011;8313;49.894;8.084;2023-06-22T07:28:26;9.87;;;8.53;;
16407;SDS011;8313;49.894;8.084;2023-06-22T07:30:52;9.57;;;8.23;;
16407;SDS011;8313;49.894;8.084;2023-06-22T07:33:18;10.10;;;8.57;;
16407;SDS011;8313;49.894;8.084;2023-06-22T07:35:44;9.27;;;8.40;;
16407;SDS011;8313;49.894;8.084;2023-06-22T07:38:11;9.73;;;8.80;;
16407;SDS011;8313;49.894;8.084;2023-06-22T07:40:37;9.93;;;9.03;;
16407;SDS011;8313;49.894;8.084;2023-06-22T07:43:03;11.20;;;10.10;;
16407;SDS011;8313;49.894;8.084;2023-06-22T07:45:29;10.40;;;9.40;;
16407;SDS011;8313;49.894;8.084;2023-06-22T07:47:55;10.10;;;9.13;;
16407;SDS011;8313;49.894;8.084;2023-06-22T07:50:20;9.73;;;8.73;;
16407;SDS011;8313;49.894;8.084;2023-06-22T07:52:46;9.63;;;8.70;;
16407;SDS011;8313;49.894;8.084;2023-06-22T07:55:13;10.43;;;9.43;;
16407;SDS011;8313;49.894;8.084;2023-06-22T07:57:38;9.50;;;8.60;;
16407;SDS011;8313;49.894;8.084;2023-06-22T08:00:06;9.67;;;8.67;;
16407;SDS011;8313;49.894;8.084;2023-06-22T08:02:44;10.20;;;9.30;;
16407;SDS011;8313;49.894;8.084;2023-06-22T08:05:11;10.03;;;9.03;;
16407;SDS011;8313;49.894;8.084;2023-06-22T08:07:37;10.93;;;9.97;;
16407;SDS011;8313;49.894;8.084;2023-06-22T08:10:04;10.25;;;9.30;;
16407;SDS011;8313;49.894;8.084;2023-06-22T08:12:30;10.33;;;9.20;;
16407;SDS011;8313;49.894;8.084;2023-06-22T08:14:56;10.17;;;9.23;;
16407;SDS011;8313;49.894;8.084;2023-06-22T08:17:23;9.63;;;8.83;;
16407;SDS011;8313;49.894;8.084;2023-06-22T08:19:49;11.37;;;10.20;;
16407;SDS011;8313;49.894;8.084;2023-06-22T08:22:15;13.80;;;11.13;;
16407;SDS011;8313;49.894;8.084;2023-06-22T08:24:41;9.88;;;8.98;;
16407;SDS011;8313;49.894;8.084;2023-06-22T08:27:07;10.77;;;9.77;;
16407;SDS011;8313;49.894;8.084;2023-06-22T08:29:41;11.10;;;10.10;;
16407;SDS011;8313;49.894;8.084;2023-06-22T08:32:11;10.35;;;9.48;;
16407;SDS011;8313;49.894;8.084;2023-06-22T08:34:37;9.82;;;8.85;;
16407;SDS011;8313;49.894;8.084;2023-06-22T08:37:07;11.15;;;9.95;;
16407;SDS011;8313;49.894;8.084;2023-06-22T08:39:34;10.20;;;9.27;;
16407;SDS011;8313;49.894;8.084;2023-06-22T08:42:00;10.30;;;9.40;;
16407;SDS011;8313;49.894;8.084;2023-06-22T08:44:25;11.57;;;10.27;;
16407;SDS011;8313;49.894;8.084;2023-06-22T08:46:51;11.07;;;9.98;;
16407;SDS011;8313;49.894;8.084;2023-06-22T08:49:16;13.25;;;10.57;;
16407;SDS011;8313;49.894;8.084;2023-06-22T08:51:42;11.63;;;10.45;;
16407;SDS011;8313;49.894;8.084;2023-06-22T08:54:10;10.75;;;9.68;;
16407;SDS011;8313;49.894;8.084;2023-06-22T08:56:36;11.77;;;10.57;;
16407;SDS011;8313;49.894;8.084;2023-06-22T08:59:02;10.65;;;9.75;;
16407;SDS011;8313;49.894;8.084;2023-06-22T09:01:27;10.60;;;9.68;;
16407;SDS011;8313;49.894;8.084;2023-06-22T09:03:53;11.93;;;10.73;;
16407;SDS011;8313;49.894;8.084;2023-06-22T09:06:23;11.65;;;10.38;;
16407;SDS011;8313;49.894;8.084;2023-06-22T09:08:49;12.10;;;10.80;;
16407;SDS011;8313;49.894;8.084;2023-06-22T09:11:15;10.85;;;9.93;;
16407;SDS011;8313;49.894;8.084;2023-06-22T09:13:41;11.63;;;10.52;;
16407;SDS011;8313;49.894;8.084;2023-06-22T09:16:07;12.02;;;10.07;;
16407;SDS011;8313;49.894;8.084;2023-06-22T09:18:33;10.80;;;9.90;;
16407;SDS011;8313;49.894;8.084;2023-06-22T09:20:59;12.80;;;11.55;;
16407;SDS011;8313;49.894;8.084;2023-06-22T09:23:25;10.98;;;9.98;;
16407;SDS011;8313;49.894;8.084;2023-06-22T09:25:51;10.77;;;9.82;;
16407;SDS011;8313;49.894;8.084;2023-06-22T09:28:17;11.57;;;10.57;;
16407;SDS011;8313;49.894;8.084;2023-06-22T09:30:43;11.52;;;10.48;;
16407;SDS011;8313;49.894;8.084;2023-06-22T09:33:09;10.98;;;9.98;;
16407;SDS011;8313;49.894;8.084;2023-06-22T09:35:35;12.30;;;9.50;;
16407;SDS011;8313;49.894;8.084;2023-06-22T09:38:01;12.73;;;11.40;;
16407;SDS011;8313;49.894;8.084;2023-06-22T09:40:26;10.70;;;9.68;;
16407;SDS011;8313;49.894;8.084;2023-06-22T09:42:52;11.18;;;10.27;;
16407;SDS011;8313;49.894;8.084;2023-06-22T09:45:17;11.55;;;10.35;;
16407;SDS011;8313;49.894;8.084;2023-06-22T09:47:43;11.35;;;10.27;;
16407;SDS011;8313;49.894;8.084;2023-06-22T09:50:09;11.85;;;10.85;;
16407;SDS011;8313;49.894;8.084;2023-06-22T09:52:35;11.55;;;10.57;;
16407;SDS011;8313;49.894;8.084;2023-06-22T09:55:00;11.63;;;10.60;;
16407;SDS011;8313;49.894;8.084;2023-06-22T09:57:28;11.57;;;10.45;;
16407;SDS011;8313;49.894;8.084;2023-06-22T09:59:54;11.45;;;10.15;;
16407;SDS011;8313;49.894;8.084;2023-06-22T10:02:21;12.07;;;10.93;;
16407;SDS011;8313;49.894;8.084;2023-06-22T10:04:47;11.52;;;10.43;;
16407;SDS011;8313;49.894;8.084;2023-06-22T10:07:13;11.52;;;10.32;;
16407;SDS011;8313;49.894;8.084;2023-06-22T10:09:39;11.85;;;10.70;;
16407;SDS011;8313;49.894;8.084;2023-06-22T10:12:04;11.48;;;10.23;;
16407;SDS011;8313;49.894;8.084;2023-06-22T10:14:30;10.80;;;9.90;;
16407;SDS011;8313;49.894;8.084;2023-06-22T10:16:56;10.98;;;9.90;;
16407;SDS011;8313;49.894;8.084;2023-06-22T10:19:22;10.50;;;9.60;;
16407;SDS011;8313;49.894;8.084;2023-06-22T10:21:47;11.10;;;10.10;;
16407;SDS011;8313;49.894;8.084;2023-06-22T10:24:13;10.65;;;9.65;;
16407;SDS011;8313;49.894;8.084;2023-06-22T10:26:39;10.80;;;9.82;;
16407;SDS011;8313;49.894;8.084;2023-06-22T10:29:04;10.10;;;9.23;;
16407;SDS011;8313;49.894;8.084;2023-06-22T10:31:30;10.48;;;9.48;;
16407;SDS011;8313;49.894;8.084;2023-06-22T10:33:56;10.05;;;9.10;;
16407;SDS011;8313;49.894;8.084;2023-06-22T10:36:22;9.55;;;8.80;;
16407;SDS011;8313;49.894;8.084;2023-06-22T10:38:48;10.50;;;9.50;;
16407;SDS011;8313;49.894;8.084;2023-06-22T10:41:14;10.02;;;9.13;;
16407;SDS011;8313;49.894;8.084;2023-06-22T10:43:40;10.48;;;9.27;;
16407;SDS011;8313;49.894;8.084;2023-06-22T10:46:06;9.73;;;8.82;;
16407;SDS011;8313;49.894;8.084;2023-06-22T10:48:32;10.80;;;9.75;;
16407;SDS011;8313;49.894;8.084;2023-06-22T10:50:57;11.00;;;8.43;;
16407;SDS011;8313;49.894;8.084;2023-06-22T10:53:23;9.18;;;8.40;;
16407;SDS011;8313;49.894;8.084;2023-06-22T10:55:49;9.75;;;8.77;;
16407;SDS011;8313;49.894;8.084;2023-06-22T10:58:15;11.35;;;8.85;;
16407;SDS011;8313;49.894;8.084;2023-06-22T11:00:40;10.73;;;9.48;;
16407;SDS011;8313;49.894;8.084;2023-06-22T11:03:06;10.27;;;9.25;;
16407;SDS011;8313;49.894;8.084;2023-06-22T11:05:32;11.00;;;9.60;;
16407;SDS011;8313;49.894;8.084;2023-06-22T11:07:57;9.57;;;8.77;;
16407;SDS011;8313;49.894;8.084;2023-06-22T11:10:23;9.40;;;8.60;;
16407;SDS011;8313;49.894;8.084;2023-06-22T11:12:49;9.98;;;8.98;;
16407;SDS011;8313;49.894;8.084;2023-06-22T11:15:14;10.88;;;9.23;;
16407;SDS011;8313;49.894;8.084;2023-06-22T11:17:40;9.88;;;8.98;;
16407;SDS011;8313;49.894;8.084;2023-06-22T11:20:06;13.43;;;9.52;;
16407;SDS011;8313;49.894;8.084;2023-06-22T11:22:36;9.63;;;8.82;;
16407;SDS011;8313;49.894;8.084;2023-06-22T11:25:06;9.68;;;8.80;;
16407;SDS011;8313;49.894;8.084;2023-06-22T11:27:32;10.48;;;9.57;;
16407;SDS011;8313;49.894;8.084;2023-06-22T11:29:58;10.98;;;9.07;;
16407;SDS011;8313;49.894;8.084;2023-06-22T11:32:24;10.60;;;9.40;;
16407;SDS011;8313;49.894;8.084;2023-06-22T11:34:49;10.77;;;8.85;;
16407;SDS011;8313;49.894;8.084;2023-06-22T11:37:15;9.93;;;8.93;;
16407;SDS011;8313;49.894;8.084;2023-06-22T11:39:42;9.90;;;9.00;;
16407;SDS011;8313;49.894;8.084;2023-06-22T11:42:07;9.40;;;8.65;;
16407;SDS011;8313;49.894;8.084;2023-06-22T11:44:34;9.25;;;8.45;;
16407;SDS011;8313;49.894;8.084;2023-06-22T11:46:59;8.90;;;7.68;;
16407;SDS011;8313;49.894;8.084;2023-06-22T11:49:26;11.38;;;8.48;;
16407;SDS011;8313;49.894;8.084;2023-06-22T11:51:52;10.23;;;9.07;;
16407;SDS011;8313;49.894;8.084;2023-06-22T11:54:18;11.00;;;10.00;;
16407;SDS011;8313;49.894;8.084;2023-06-22T11:56:44;9.45;;;8.55;;
16407;SDS011;8313;49.894;8.084;2023-06-22T11:59:09;10.25;;;9.32;;
16407;SDS011;8313;49.894;8.084;2023-06-22T12:01:35;10.40;;;9.40;;
16407;SDS011;8313;49.894;8.084;2023-06-22T12:04:01;9.57;;;8.77;;
16407;SDS011;8313;49.894;8.084;2023-06-22T12:06:30;10.38;;;9.48;;
16407;SDS011;8313;49.894;8.084;2023-06-22T12:09:03;9.77;;;8.93;;
16407;SDS011;8313;49.894;8.084;2023-06-22T12:11:30;9.85;;;9.05;;
16407;SDS011;8313;49.894;8.084;2023-06-22T12:13:56;10.38;;;9.27;;
16407;SDS011;8313;49.894;8.084;2023-06-22T12:16:22;9.93;;;8.95;;
16407;SDS011;8313;49.894;8.084;2023-06-22T12:18:49;10.05;;;9.18;;
16407;SDS011;8313;49.894;8.084;2023-06-22T12:21:15;9.57;;;8.77;;
16407;SDS011;8313;49.894;8.084;2023-06-22T12:23:40;8.80;;;7.82;;
16407;SDS011;8313;49.894;8.084;2023-06-22T12:26:06;9.75;;;8.85;;
16407;SDS011;8313;49.894;8.084;2023-06-22T12:28:32;9.48;;;8.57;;
16407;SDS011;8313;49.894;8.084;2023-06-22T12:30:57;11.18;;;9.30;;
16407;SDS011;8313;49.894;8.084;2023-06-22T12:33:23;10.55;;;9.50;;
16407;SDS011;8313;49.894;8.084;2023-06-22T12:35:48;10.98;;;9.25;;
16407;SDS011;8313;49.894;8.084;2023-06-22T12:38:14;9.65;;;8.65;;
16407;SDS011;8313;49.894;8.084;2023-06-22T12:40:40;9.80;;;8.88;;
16407;SDS011;8313;49.894;8.084;2023-06-22T12:43:05;9.52;;;8.15;;
16407;SDS011;8313;49.894;8.084;2023-06-22T12:45:32;11.48;;;8.52;;
16407;SDS011;8313;49.894;8.084;2023-06-22T12:47:59;8.07;;;7.30;;
16407;SDS011;8313;49.894;8.084;2023-06-22T12:50:25;9.00;;;7.95;;
16407;SDS011;8313;49.894;8.084;2023-06-22T12:52:51;9.93;;;9.07;;
16407;SDS011;8313;49.894;8.084;2023-06-22T12:55:16;9.50;;;8.60;;
16407;SDS011;8313;49.894;8.084;2023-06-22T12:57:42;8.82;;;8.13;;
16407;SDS011;8313;49.894;8.084;2023-06-22T13:00:08;10.32;;;8.75;;
16407;SDS011;8313;49.894;8.084;2023-06-22T13:02:35;10.43;;;8.05;;
16407;SDS011;8313;49.894;8.084;2023-06-22T13:05:02;8.30;;;7.60;;
16407;SDS011;8313;49.894;8.084;2023-06-22T13:07:30;9.15;;;7.57;;
16407;SDS011;8313;49.894;8.084;2023-06-22T13:09:55;8.38;;;7.57;;
16407;SDS011;8313;49.894;8.084;2023-06-22T13:12:21;9.70;;;7.05;;
16407;SDS011;8313;49.894;8.084;2023-06-22T13:14:47;9.13;;;7.47;;
16407;SDS011;8313;49.894;8.084;2023-06-22T13:17:13;7.45;;;6.70;;
16407;SDS011;8313;49.894;8.084;2023-06-22T13:19:39;7.60;;;6.32;;
16407;SDS011;8313;49.894;8.084;2023-06-22T13:22:05;7.65;;;6.45;;
16407;SDS011;8313;49.894;8.084;2023-06-22T13:24:50;7.63;;;6.88;;
16407;SDS011;8313;49.894;8.084;2023-06-22T13:27:16;11.02;;;6.78;;
16407;SDS011;8313;49.894;8.084;2023-06-22T13:29:41;11.15;;;6.93;;
16407;SDS011;8313;49.894;8.084;2023-06-22T13:32:07;6.75;;;6.18;;
16407;SDS011;8313;49.894;8.084;2023-06-22T13:34:33;7.43;;;6.63;;
16407;SDS011;8313;49.894;8.084;2023-06-22T13:36:58;9.20;;;7.35;;
16407;SDS011;8313;49.894;8.084;2023-06-22T13:39:24;11.15;;;6.60;;
16407;SDS011;8313;49.894;8.084;2023-06-22T13:41:50;7.25;;;6.55;;
16407;SDS011;8313;49.894;8.084;2023-06-22T13:44:15;10.15;;;7.45;;
16407;SDS011;8313;49.894;8.084;2023-06-22T13:46:41;6.47;;;5.88;;
16407;SDS011;8313;49.894;8.084;2023-06-22T13:49:07;9.18;;;6.93;;
16407;SDS011;8313;49.894;8.084;2023-06-22T13:51:33;8.48;;;7.03;;
16407;SDS011;8313;49.894;8.084;2023-06-22T13:53:58;10.20;;;7.30;;
16407;SDS011;8313;49.894;8.084;2023-06-22T13:56:24;8.65;;;7.85;;
16407;SDS011;8313;49.894;8.084;2023-06-22T13:58:50;7.80;;;7.10;;
16407;SDS011;8313;49.894;8.084;2023-06-22T14:01:15;8.38;;;6.63;;
16407;SDS011;8313;49.894;8.084;2023-06-22T14:03:41;7.57;;;6.03;;
16407;SDS011;8313;49.894;8.084;2023-06-22T14:06:07;9.18;;;7.47;;
16407;SDS011;8313;49.894;8.084;2023-06-22T14:08:37;8.45;;;7.55;;
16407;SDS011;8313;49.894;8.084;2023-06-22T14:11:02;7.70;;;7.00;;
16407;SDS011;8313;49.894;8.084;2023-06-22T14:13:28;8.88;;;7.93;;
16407;SDS011;8313;49.894;8.084;2023-06-22T14:15:54;12.23;;;7.60;;
16407;SDS011;8313;49.894;8.084;2023-06-22T14:18:19;9.63;;;7.15;;
16407;SDS011;8313;49.894;8.084;2023-06-22T14:20:47;13.18;;;6.72;;
16407;SDS011;8313;49.894;8.084;2023-06-22T14:23:13;9.23;;;5.90;;
16407;SDS011;8313;49.894;8.084;2023-06-22T14:25:39;6.95;;;6.05;;
16407;SDS011;8313;49.894;8.084;2023-06-22T14:28:05;10.07;;;6.00;;
16407;SDS011;8313;49.894;8.084;2023-06-22T14:30:31;13.02;;;5.60;;
16407;SDS011;8313;49.894;8.084;2023-06-22T14:32:57;7.28;;;6.35;;
16407;SDS011;8313;49.894;8.084;2023-06-22T14:35:23;5.95;;;5.43;;
16407;SDS011;8313;49.894;8.084;2023-06-22T14:37:49;8.07;;;5.20;;
16407;SDS011;8313;49.894;8.084;2023-06-22T14:40:15;6.68;;;5.07;;
16407;SDS011;8313;49.894;8.084;2023-06-22T14:42:41;7.97;;;5.55;;
16407;SDS011;8313;49.894;8.084;2023-06-22T14:45:07;6.97;;;5.20;;
16407;SDS011;8313;49.894;8.084;2023-06-22T14:47:33;7.65;;;5.90;;
16407;SDS011;8313;49.894;8.084;2023-06-22T14:50:01;10.50;;;5.90;;
16407;SDS011;8313;49.894;8.084;2023-06-22T14:52:27;8.40;;;6.82;;
16407;SDS011;8313;49.894;8.084;2023-06-22T14:54:53;8.98;;;7.63;;
16407;SDS011;8313;49.894;8.084;2023-06-22T14:57:19;9.70;;;5.30;;
16407;SDS011;8313;49.894;8.084;2023-06-22T14:59:51;7.60;;;6.13;;
16407;SDS011;8313;49.894;8.084;2023-06-22T15:02:17;15.00;;;6.35;;
16407;SDS011;8313;49.894;8.084;2023-06-22T15:04:42;6.85;;;5.57;;
16407;SDS011;8313;49.894;8.084;2023-06-22T15:07:08;7.10;;;5.85;;
16407;SDS011;8313;49.894;8.084;2023-06-22T15:09:34;8.15;;;5.85;;